Midland, MI

6:28 AM EST on December 18, 2017 (GMT -0500)
Barstow

Weather History for KIKW - April, 2014

Change the Weather History Date:

Thursday, April 10, 2014

  Actual Average (KMBS) Record (KMBS)
Temperature  
Mean Temperature 56 °F -  
Max Temperature 66 °F 51 °F 82 °F (2011)
Min Temperature 46 °F 33 °F 19 °F (1997)
Degree Days  
Heating Degree Days 9    
Growing Degree Days 6 (Base 50)    
Moisture  
Dew Point 33 °F    
Average Humidity 47    
Maximum Humidity 62    
Minimum Humidity 31    
Precipitation  
Precipitation 0.00 in - - ()
Sea Level Pressure  
Sea Level Pressure 29.72 in    
Wind  
Wind Speed 10 mph (SW)    
Max Wind Speed 23 mph    
Max Gust Speed 34 mph    
Visibility 10 miles    
Events Rain    
Averages and records for this station are not official NWS values.
T = Trace of Precipitation, MM = Missing Value Source: NWS Daily Summary

Daily Weather History Graph

Daily Weather History Graph

Search for Another Location

Airport or City:

Trip Planner

Search our weather history database for the weather conditions in past years. The results will help you decide how hot, cold, wet, or windy it might be!

Date:

Astronomy

Apr. 10, 2014 Rise Set
Actual Time 7:02 AM EDT 8:14 PM EDT
Civil Twilight 6:33 AM EDT 8:44 PM EDT
Nautical Twilight 5:57 AM EDT 9:19 PM EDT
Astronomical Twilight 5:20 AM EDT 9:57 PM EDT
Moon 3:49 PM EDT (4/10) 4:33 AM EDT (4/10)
Length of Visible Light 14h 10m
Length of Day
13h 11m
Waxing Gibbous, 79% of the Moon is Illuminated
Apr 10
Waxing Gibbous
Apr 15
Full
Apr 22
Last Quarter
Apr 29
New
May 6
First Quarter

Hourly Weather History & Observations

Time (EDT) Temp. Dew Point Humidity Pressure Visibility Wind Dir Wind Speed Gust Speed Precip Events Conditions
12:13 AM 47.3 °F 28.4 °F 48% 29.82 in 10.0 mi South 5.8 mph - N/A   Clear
12:33 AM 46.6 °F 28.4 °F 49% 29.82 in 10.0 mi South 5.8 mph - N/A   Clear
12:54 AM 46.6 °F 28.4 °F 49% 29.81 in 10.0 mi South 5.8 mph - N/A   Clear
1:13 AM 46.8 °F 29.3 °F 51% 29.81 in 10.0 mi SSW 8.1 mph - N/A   Clear
1:33 AM 47.5 °F 29.8 °F 50% 29.79 in 10.0 mi SSW 10.4 mph - N/A   Clear
1:54 AM 48.9 °F 30.4 °F 49% 29.79 in 10.0 mi SSW 11.5 mph - N/A   Clear
2:13 AM 49.1 °F 30.7 °F 49% 29.78 in 10.0 mi SSW 12.7 mph - N/A   Clear
2:33 AM 49.1 °F 30.9 °F 50% 29.77 in 10.0 mi SSW 11.5 mph 17.3 mph N/A   Clear
2:53 AM 48.4 °F 31.1 °F 51% 29.76 in 10.0 mi SSW 11.5 mph 19.6 mph N/A   Clear
3:13 AM 49.1 °F 31.1 °F 50% 29.76 in 10.0 mi SSW 10.4 mph 16.1 mph N/A   Clear
3:33 AM 48.7 °F 31.1 °F 51% 29.75 in 10.0 mi SSW 10.4 mph - N/A   Clear
3:53 AM 48.2 °F 31.1 °F 52% 29.74 in 10.0 mi SSW 10.4 mph - N/A   Clear
4:13 AM 47.3 °F 31.1 °F 53% 29.74 in 10.0 mi SSW 8.1 mph - N/A   Clear
4:34 AM 47.3 °F 31.1 °F 53% 29.73 in 10.0 mi SSW 6.9 mph - N/A   Clear
4:53 AM 47.3 °F 31.1 °F 53% 29.72 in 10.0 mi SSW 9.2 mph - N/A   Clear
5:13 AM 47.7 °F 31.1 °F 53% 29.72 in 10.0 mi SSW 9.2 mph - N/A   Clear
5:34 AM 47.3 °F 31.3 °F 54% 29.71 in 10.0 mi SSW 9.2 mph - N/A   Clear
5:53 AM 47.1 °F 31.6 °F 55% 29.70 in 10.0 mi SSW 13.8 mph 18.4 mph N/A   Clear
6:13 AM 47.5 °F 31.6 °F 54% 29.69 in 10.0 mi SSW 12.7 mph 17.3 mph N/A   Clear
6:34 AM 47.8 °F 31.8 °F 54% 29.70 in 10.0 mi SSW 10.4 mph 17.3 mph N/A   Clear
6:53 AM 47.5 °F 31.8 °F 55% 29.69 in 10.0 mi SSW 13.8 mph - N/A   Clear
7:13 AM 47.5 °F 32.0 °F 55% 29.69 in 10.0 mi SSW 11.5 mph 19.6 mph N/A   Clear
7:34 AM 48.2 °F 32.0 °F 54% 29.69 in 10.0 mi SSW 11.5 mph 17.3 mph N/A   Clear
7:53 AM 49.1 °F 32.0 °F 52% 29.67 in 10.0 mi SSW 12.7 mph 20.7 mph N/A   Clear
8:03 AM 49.6 °F 32.0 °F 51% 29.67 in 10.0 mi SSW 13.8 mph 19.6 mph N/A   Clear
8:33 AM 52.2 °F 32.0 °F 46% 29.67 in 10.0 mi SSW 12.7 mph 25.3 mph N/A   Clear
8:53 AM 53.6 °F 31.8 °F 44% 29.66 in 10.0 mi SSW 18.4 mph 28.8 mph N/A   Clear
9:14 AM 54.5 °F 32.0 °F 42% 29.66 in 10.0 mi SW 13.8 mph 27.6 mph N/A   Clear
9:33 AM 55.4 °F 32.0 °F 41% 29.67 in 10.0 mi SW 13.8 mph 24.2 mph N/A   Clear
9:53 AM 57.0 °F 32.2 °F 39% 29.66 in 10.0 mi SW 16.1 mph 19.6 mph N/A   Clear
10:14 AM 58.1 °F 32.0 °F 37% 29.64 in 10.0 mi SSW 15.0 mph 23.0 mph N/A   Clear
10:33 AM 59.5 °F 32.5 °F 36% 29.64 in 10.0 mi SSW 13.8 mph 20.7 mph N/A   Clear
10:53 AM 61.0 °F 33.1 °F 35% 29.63 in 10.0 mi SW 15.0 mph 27.6 mph N/A   Clear
11:13 AM 62.6 °F 32.7 °F 33% 29.62 in 10.0 mi WSW 17.3 mph 26.5 mph N/A   Clear
11:33 AM 63.7 °F 33.1 °F 32% 29.62 in 10.0 mi SW 18.4 mph 24.2 mph N/A   Clear
11:53 AM 64.8 °F 33.3 °F 31% 29.60 in 10.0 mi SW 23.0 mph 28.8 mph N/A   Clear
12:13 PM 65.3 °F 33.8 °F 31% 29.60 in 10.0 mi WSW 18.4 mph 27.6 mph N/A   Clear
12:34 PM 66.2 °F 34.3 °F 31% 29.59 in 10.0 mi WSW 16.1 mph 27.6 mph N/A   Clear
12:53 PM 66.0 °F 35.1 °F 32% 29.58 in 10.0 mi SW 20.7 mph 32.2 mph N/A   Clear
1:13 PM 66.2 °F 34.7 °F 31% 29.60 in 7.0 mi West 17.3 mph 27.6 mph N/A   Clear
1:34 PM 64.8 °F 34.3 °F 32% 29.63 in 10.0 mi West 23.0 mph 34.5 mph N/A   Scattered Clouds
1:53 PM 63.7 °F 34.3 °F 34% 29.63 in 10.0 mi West 19.6 mph 27.6 mph N/A   Mostly Cloudy
2:13 PM 61.3 °F 36.1 °F 39% 29.63 in 10.0 mi WSW 13.8 mph 19.6 mph N/A Rain Rain
2:33 PM 57.9 °F 41.0 °F 53% 29.62 in 10.0 mi WSW 11.5 mph 18.4 mph N/A Rain Light Rain
2:53 PM 57.7 °F 40.3 °F 52% 29.63 in 10.0 mi WSW 9.2 mph - N/A Rain Light Rain
3:14 PM 57.2 °F 40.5 °F 54% 29.66 in 10.0 mi West 11.5 mph 20.7 mph N/A Rain Light Rain
3:33 PM 56.5 °F 40.5 °F 55% 29.67 in 10.0 mi West 11.5 mph 23.0 mph N/A   Overcast
3:53 PM 55.0 °F 39.7 °F 56% 29.68 in 10.0 mi West 10.4 mph 26.5 mph N/A   Overcast
4:14 PM 54.5 °F 39.9 °F 58% 29.68 in 10.0 mi West 11.5 mph 17.3 mph N/A   Overcast
4:33 PM 54.5 °F 40.5 °F 59% 29.69 in 10.0 mi West 12.7 mph 18.4 mph N/A   Overcast
4:53 PM 53.6 °F 40.6 °F 62% 29.70 in 10.0 mi West 6.9 mph - N/A   Overcast
5:13 PM 54.5 °F 40.5 °F 59% 29.71 in 10.0 mi West 9.2 mph 16.1 mph N/A   Mostly Cloudy
5:33 PM 55.2 °F 39.9 °F 56% 29.71 in 10.0 mi West 10.4 mph - N/A   Scattered Clouds
5:53 PM 56.1 °F 39.6 °F 54% 29.72 in 10.0 mi West 9.2 mph - N/A   Clear
6:13 PM 55.9 °F 37.9 °F 51% 29.73 in 10.0 mi West 13.8 mph 19.6 mph N/A   Clear
6:33 PM 56.5 °F 36.3 °F 47% 29.74 in 10.0 mi West 10.4 mph 19.6 mph N/A   Clear
6:53 PM 55.9 °F 34.2 °F 44% 29.75 in 10.0 mi West 11.5 mph 20.7 mph N/A   Clear
7:13 PM 55.9 °F 33.6 °F 43% 29.75 in 10.0 mi West 8.1 mph - N/A   Clear
7:33 PM 55.9 °F 32.7 °F 41% 29.76 in 10.0 mi WNW 10.4 mph - N/A   Clear
7:54 PM 54.9 °F 31.1 °F 40% 29.77 in 10.0 mi West 9.2 mph 20.7 mph N/A   Clear
8:13 PM 54.5 °F 30.7 °F 40% 29.79 in 10.0 mi West 8.1 mph - N/A   Clear
8:33 PM 53.4 °F 31.1 °F 43% 29.79 in 10.0 mi West 5.8 mph - N/A   Clear
8:54 PM 52.7 °F 30.9 °F 43% 29.80 in 10.0 mi WSW 3.5 mph - N/A   Clear
9:13 PM 51.4 °F 30.6 °F 45% 29.81 in 10.0 mi WSW 4.6 mph - N/A   Clear
9:33 PM 50.9 °F 30.9 °F 46% 29.82 in 10.0 mi SW 4.6 mph - N/A   Clear
9:54 PM 49.5 °F 31.1 °F 49% 29.83 in 10.0 mi SW 4.6 mph - N/A   Clear
10:13 PM 49.1 °F 31.5 °F 51% 29.84 in 10.0 mi SW 4.6 mph - N/A   Clear
10:33 PM 48.9 °F 30.9 °F 50% 29.85 in 10.0 mi WSW 5.8 mph - N/A   Clear
10:54 PM 49.1 °F 29.1 °F 46% 29.85 in 10.0 mi WSW 5.8 mph - N/A   Clear
11:13 PM 49.1 °F 28.0 °F 44% 29.86 in 10.0 mi WSW 5.8 mph - N/A   Clear
11:33 PM 49.1 °F 27.1 °F 43% 29.86 in 10.0 mi WSW 5.8 mph - N/A   Clear
11:54 PM 49.1 °F 26.4 °F 41% 29.87 in 10.0 mi WSW 6.9 mph - N/A   Clear